sensor_id;sensor_type;location;lat;lon;timestamp;P1;durP1;ratioP1;P2;durP2;ratioP2
16854;SDS011;8543;54.522;18.550;2022-12-07T00:01:08;13.50;;;7.40;;
16854;SDS011;8543;54.522;18.550;2022-12-07T00:03:36;14.10;;;7.70;;
16854;SDS011;8543;54.522;18.550;2022-12-07T00:06:03;10.90;;;6.70;;
16854;SDS011;8543;54.522;18.550;2022-12-07T00:08:29;13.60;;;7.20;;
16854;SDS011;8543;54.522;18.550;2022-12-07T00:10:59;11.50;;;6.60;;
16854;SDS011;8543;54.522;18.550;2022-12-07T00:13:26;12.60;;;8.00;;
16854;SDS011;8543;54.522;18.550;2022-12-07T00:15:51;11.50;;;6.80;;
16854;SDS011;8543;54.522;18.550;2022-12-07T00:18:16;15.20;;;8.10;;
16854;SDS011;8543;54.522;18.550;2022-12-07T00:20:42;14.10;;;7.70;;
16854;SDS011;8543;54.522;18.550;2022-12-07T00:23:07;11.70;;;6.40;;
16854;SDS011;8543;54.522;18.550;2022-12-07T00:25:33;11.70;;;6.40;;
16854;SDS011;8543;54.522;18.550;2022-12-07T00:27:58;11.40;;;6.20;;
16854;SDS011;8543;54.522;18.550;2022-12-07T00:30:23;12.10;;;6.40;;
16854;SDS011;8543;54.522;18.550;2022-12-07T00:32:49;10.20;;;6.50;;
16854;SDS011;8543;54.522;18.550;2022-12-07T00:35:15;12.00;;;6.40;;
16854;SDS011;8543;54.522;18.550;2022-12-07T00:37:40;11.10;;;6.70;;
16854;SDS011;8543;54.522;18.550;2022-12-07T00:40:06;12.00;;;6.60;;
16854;SDS011;8543;54.522;18.550;2022-12-07T00:42:31;10.70;;;5.80;;
16854;SDS011;8543;54.522;18.550;2022-12-07T00:44:57;11.50;;;6.60;;
16854;SDS011;8543;54.522;18.550;2022-12-07T00:47:22;11.70;;;7.20;;
16854;SDS011;8543;54.522;18.550;2022-12-07T00:49:48;10.70;;;5.70;;
16854;SDS011;8543;54.522;18.550;2022-12-07T00:52:13;10.80;;;6.30;;
16854;SDS011;8543;54.522;18.550;2022-12-07T00:54:39;10.40;;;6.20;;
16854;SDS011;8543;54.522;18.550;2022-12-07T00:57:05;13.40;;;6.40;;
16854;SDS011;8543;54.522;18.550;2022-12-07T00:59:30;12.10;;;5.80;;
16854;SDS011;8543;54.522;18.550;2022-12-07T01:01:55;10.80;;;5.80;;
16854;SDS011;8543;54.522;18.550;2022-12-07T01:04:21;11.00;;;6.40;;
16854;SDS011;8543;54.522;18.550;2022-12-07T01:06:46;10.40;;;5.80;;
16854;SDS011;8543;54.522;18.550;2022-12-07T01:09:11;10.90;;;5.70;;
16854;SDS011;8543;54.522;18.550;2022-12-07T01:11:37;9.80;;;5.30;;
16854;SDS011;8543;54.522;18.550;2022-12-07T01:14:02;9.90;;;5.00;;
16854;SDS011;8543;54.522;18.550;2022-12-07T01:16:29;9.50;;;5.70;;
16854;SDS011;8543;54.522;18.550;2022-12-07T01:18:56;9.40;;;5.20;;
16854;SDS011;8543;54.522;18.550;2022-12-07T01:21:26;9.70;;;5.70;;
16854;SDS011;8543;54.522;18.550;2022-12-07T01:23:59;10.70;;;5.60;;
16854;SDS011;8543;54.522;18.550;2022-12-07T01:26:25;9.40;;;5.30;;
16854;SDS011;8543;54.522;18.550;2022-12-07T01:28:51;10.00;;;5.70;;
16854;SDS011;8543;54.522;18.550;2022-12-07T01:31:20;10.70;;;5.90;;
16854;SDS011;8543;54.522;18.550;2022-12-07T01:33:47;11.10;;;5.70;;
16854;SDS011;8543;54.522;18.550;2022-12-07T01:36:18;12.60;;;6.80;;
16854;SDS011;8543;54.522;18.550;2022-12-07T01:38:44;8.40;;;5.10;;
16854;SDS011;8543;54.522;18.550;2022-12-07T01:41:11;9.90;;;5.30;;
16854;SDS011;8543;54.522;18.550;2022-12-07T01:44:06;8.90;;;4.90;;
16854;SDS011;8543;54.522;18.550;2022-12-07T01:46:32;8.30;;;5.00;;
16854;SDS011;8543;54.522;18.550;2022-12-07T01:48:58;8.80;;;5.30;;
16854;SDS011;8543;54.522;18.550;2022-12-07T01:51:24;9.30;;;5.10;;
16854;SDS011;8543;54.522;18.550;2022-12-07T01:53:50;9.50;;;5.20;;
16854;SDS011;8543;54.522;18.550;2022-12-07T01:56:17;8.20;;;5.00;;
16854;SDS011;8543;54.522;18.550;2022-12-07T01:58:44;7.80;;;4.80;;
16854;SDS011;8543;54.522;18.550;2022-12-07T02:01:10;11.00;;;5.50;;
16854;SDS011;8543;54.522;18.550;2022-12-07T02:03:39;9.70;;;5.10;;
16854;SDS011;8543;54.522;18.550;2022-12-07T02:06:07;9.50;;;4.80;;
16854;SDS011;8543;54.522;18.550;2022-12-07T02:08:33;9.00;;;4.70;;
16854;SDS011;8543;54.522;18.550;2022-12-07T02:10:59;9.80;;;4.90;;
16854;SDS011;8543;54.522;18.550;2022-12-07T02:13:26;9.70;;;5.50;;
16854;SDS011;8543;54.522;18.550;2022-12-07T02:21:57;9.00;;;5.00;;
16854;SDS011;8543;54.522;18.550;2022-12-07T02:27:47;7.10;;;4.40;;
16854;SDS011;8543;54.522;18.550;2022-12-07T02:30:19;9.20;;;4.50;;
16854;SDS011;8543;54.522;18.550;2022-12-07T02:35:51;8.80;;;5.30;;
16854;SDS011;8543;54.522;18.550;2022-12-07T02:38:25;8.70;;;4.90;;
16854;SDS011;8543;54.522;18.550;2022-12-07T02:44:03;8.50;;;4.50;;
16854;SDS011;8543;54.522;18.550;2022-12-07T02:49:17;8.10;;;4.70;;
16854;SDS011;8543;54.522;18.550;2022-12-07T02:51:44;10.20;;;5.00;;
16854;SDS011;8543;54.522;18.550;2022-12-07T02:54:12;9.40;;;5.00;;
16854;SDS011;8543;54.522;18.550;2022-12-07T02:56:40;8.60;;;4.80;;
16854;SDS011;8543;54.522;18.550;2022-12-07T03:02:00;6.80;;;4.40;;
16854;SDS011;8543;54.522;18.550;2022-12-07T03:04:46;6.70;;;4.10;;
16854;SDS011;8543;54.522;18.550;2022-12-07T03:15:35;6.40;;;3.80;;
16854;SDS011;8543;54.522;18.550;2022-12-07T03:18:04;7.60;;;4.40;;
16854;SDS011;8543;54.522;18.550;2022-12-07T03:20:29;6.40;;;3.80;;
16854;SDS011;8543;54.522;18.550;2022-12-07T03:22:57;6.80;;;3.80;;
16854;SDS011;8543;54.522;18.550;2022-12-07T03:25:24;7.40;;;4.20;;
16854;SDS011;8543;54.522;18.550;2022-12-07T03:27:54;7.00;;;4.10;;
16854;SDS011;8543;54.522;18.550;2022-12-07T03:30:23;5.80;;;3.70;;
16854;SDS011;8543;54.522;18.550;2022-12-07T03:35:38;5.70;;;3.50;;
16854;SDS011;8543;54.522;18.550;2022-12-07T03:41:06;5.70;;;3.40;;
16854;SDS011;8543;54.522;18.550;2022-12-07T03:43:35;5.60;;;3.10;;
16854;SDS011;8543;54.522;18.550;2022-12-07T03:48:54;4.90;;;3.00;;
16854;SDS011;8543;54.522;18.550;2022-12-07T03:51:36;5.30;;;3.10;;
16854;SDS011;8543;54.522;18.550;2022-12-07T03:54:14;6.00;;;3.50;;
16854;SDS011;8543;54.522;18.550;2022-12-07T03:56:44;8.50;;;3.40;;
16854;SDS011;8543;54.522;18.550;2022-12-07T03:59:11;5.40;;;2.80;;
16854;SDS011;8543;54.522;18.550;2022-12-07T04:01:38;5.40;;;3.10;;
16854;SDS011;8543;54.522;18.550;2022-12-07T04:04:03;5.00;;;2.90;;
16854;SDS011;8543;54.522;18.550;2022-12-07T04:06:29;5.00;;;3.00;;
16854;SDS011;8543;54.522;18.550;2022-12-07T04:08:54;4.70;;;2.90;;
16854;SDS011;8543;54.522;18.550;2022-12-07T04:11:20;4.20;;;2.60;;
16854;SDS011;8543;54.522;18.550;2022-12-07T04:13:45;4.70;;;2.50;;
16854;SDS011;8543;54.522;18.550;2022-12-07T04:16:29;4.10;;;2.30;;
16854;SDS011;8543;54.522;18.550;2022-12-07T04:18:55;5.00;;;2.80;;
16854;SDS011;8543;54.522;18.550;2022-12-07T04:21:20;3.90;;;2.30;;
16854;SDS011;8543;54.522;18.550;2022-12-07T04:23:45;3.60;;;2.20;;
16854;SDS011;8543;54.522;18.550;2022-12-07T04:26:11;4.50;;;2.60;;
16854;SDS011;8543;54.522;18.550;2022-12-07T04:28:36;3.90;;;2.50;;
16854;SDS011;8543;54.522;18.550;2022-12-07T04:31:01;4.00;;;2.40;;
16854;SDS011;8543;54.522;18.550;2022-12-07T04:33:27;4.20;;;2.70;;
16854;SDS011;8543;54.522;18.550;2022-12-07T04:35:52;5.10;;;2.80;;
16854;SDS011;8543;54.522;18.550;2022-12-07T04:38:18;4.50;;;2.80;;
16854;SDS011;8543;54.522;18.550;2022-12-07T04:40:43;4.90;;;2.90;;
16854;SDS011;8543;54.522;18.550;2022-12-07T04:43:08;4.40;;;2.90;;
16854;SDS011;8543;54.522;18.550;2022-12-07T04:45:34;5.70;;;2.90;;
16854;SDS011;8543;54.522;18.550;2022-12-07T04:47:59;5.10;;;3.10;;
16854;SDS011;8543;54.522;18.550;2022-12-07T04:50:24;4.40;;;2.70;;
16854;SDS011;8543;54.522;18.550;2022-12-07T04:52:50;4.00;;;2.50;;
16854;SDS011;8543;54.522;18.550;2022-12-07T04:55:15;4.40;;;2.70;;
16854;SDS011;8543;54.522;18.550;2022-12-07T04:57:41;4.30;;;2.50;;
16854;SDS011;8543;54.522;18.550;2022-12-07T05:00:06;4.30;;;2.80;;
16854;SDS011;8543;54.522;18.550;2022-12-07T05:02:32;4.50;;;2.70;;
16854;SDS011;8543;54.522;18.550;2022-12-07T05:04:58;4.80;;;2.90;;
16854;SDS011;8543;54.522;18.550;2022-12-07T05:07:23;4.50;;;2.50;;
16854;SDS011;8543;54.522;18.550;2022-12-07T05:09:48;4.10;;;2.70;;
16854;SDS011;8543;54.522;18.550;2022-12-07T05:12:14;5.60;;;3.20;;
16854;SDS011;8543;54.522;18.550;2022-12-07T05:14:39;4.50;;;2.70;;
16854;SDS011;8543;54.522;18.550;2022-12-07T05:17:04;6.20;;;3.70;;
16854;SDS011;8543;54.522;18.550;2022-12-07T05:19:30;5.20;;;3.30;;
16854;SDS011;8543;54.522;18.550;2022-12-07T05:21:55;4.70;;;3.10;;
16854;SDS011;8543;54.522;18.550;2022-12-07T05:24:21;5.20;;;3.30;;
16854;SDS011;8543;54.522;18.550;2022-12-07T05:26:46;4.40;;;2.80;;
16854;SDS011;8543;54.522;18.550;2022-12-07T05:29:13;3.80;;;2.50;;
16854;SDS011;8543;54.522;18.550;2022-12-07T05:31:39;5.50;;;2.80;;
16854;SDS011;8543;54.522;18.550;2022-12-07T05:34:05;4.40;;;2.70;;
16854;SDS011;8543;54.522;18.550;2022-12-07T05:36:30;4.10;;;2.90;;
16854;SDS011;8543;54.522;18.550;2022-12-07T05:38:56;4.20;;;2.60;;
16854;SDS011;8543;54.522;18.550;2022-12-07T05:41:22;4.20;;;2.60;;
16854;SDS011;8543;54.522;18.550;2022-12-07T05:44:06;4.30;;;3.00;;
16854;SDS011;8543;54.522;18.550;2022-12-07T05:46:32;5.30;;;2.50;;
16854;SDS011;8543;54.522;18.550;2022-12-07T05:48:57;4.30;;;2.60;;
16854;SDS011;8543;54.522;18.550;2022-12-07T05:51:23;4.50;;;2.70;;
16854;SDS011;8543;54.522;18.550;2022-12-07T05:53:48;4.60;;;2.50;;
16854;SDS011;8543;54.522;18.550;2022-12-07T05:56:14;3.40;;;2.20;;
16854;SDS011;8543;54.522;18.550;2022-12-07T05:58:39;3.30;;;2.10;;
16854;SDS011;8543;54.522;18.550;2022-12-07T06:01:23;2.30;;;1.70;;
16854;SDS011;8543;54.522;18.550;2022-12-07T06:03:48;2.60;;;1.70;;
16854;SDS011;8543;54.522;18.550;2022-12-07T06:06:14;2.10;;;1.40;;
16854;SDS011;8543;54.522;18.550;2022-12-07T06:08:39;2.40;;;1.50;;
16854;SDS011;8543;54.522;18.550;2022-12-07T06:11:04;3.00;;;1.70;;
16854;SDS011;8543;54.522;18.550;2022-12-07T06:13:48;2.10;;;1.60;;
16854;SDS011;8543;54.522;18.550;2022-12-07T06:16:14;1.90;;;1.40;;
16854;SDS011;8543;54.522;18.550;2022-12-07T06:18:39;1.50;;;1.30;;
16854;SDS011;8543;54.522;18.550;2022-12-07T06:21:05;1.60;;;1.40;;
16854;SDS011;8543;54.522;18.550;2022-12-07T06:23:30;1.90;;;1.50;;
16854;SDS011;8543;54.522;18.550;2022-12-07T06:25:55;2.00;;;1.50;;
16854;SDS011;8543;54.522;18.550;2022-12-07T06:28:21;2.60;;;1.50;;
16854;SDS011;8543;54.522;18.550;2022-12-07T06:30:46;2.50;;;1.40;;
16854;SDS011;8543;54.522;18.550;2022-12-07T06:33:11;2.10;;;1.20;;
16854;SDS011;8543;54.522;18.550;2022-12-07T06:35:37;1.50;;;1.30;;
16854;SDS011;8543;54.522;18.550;2022-12-07T06:38:03;3.00;;;1.80;;
16854;SDS011;8543;54.522;18.550;2022-12-07T06:40:28;2.30;;;1.50;;
16854;SDS011;8543;54.522;18.550;2022-12-07T06:42:53;4.50;;;1.70;;
16854;SDS011;8543;54.522;18.550;2022-12-07T06:45:19;2.80;;;1.70;;
16854;SDS011;8543;54.522;18.550;2022-12-07T06:47:44;2.60;;;1.40;;
16854;SDS011;8543;54.522;18.550;2022-12-07T06:50:09;4.30;;;1.80;;
16854;SDS011;8543;54.522;18.550;2022-12-07T06:52:35;2.00;;;1.40;;
16854;SDS011;8543;54.522;18.550;2022-12-07T06:55:00;3.00;;;1.70;;
16854;SDS011;8543;54.522;18.550;2022-12-07T06:57:26;4.80;;;1.60;;
16854;SDS011;8543;54.522;18.550;2022-12-07T06:59:51;3.70;;;1.90;;
16854;SDS011;8543;54.522;18.550;2022-12-07T07:02:16;2.10;;;1.50;;
16854;SDS011;8543;54.522;18.550;2022-12-07T07:04:42;2.30;;;1.80;;
16854;SDS011;8543;54.522;18.550;2022-12-07T07:07:08;3.90;;;1.60;;
16854;SDS011;8543;54.522;18.550;2022-12-07T07:09:33;2.90;;;1.80;;
16854;SDS011;8543;54.522;18.550;2022-12-07T07:11:59;2.60;;;1.70;;
16854;SDS011;8543;54.522;18.550;2022-12-07T07:14:24;3.00;;;1.70;;
16854;SDS011;8543;54.522;18.550;2022-12-07T07:16:50;4.00;;;2.30;;
16854;SDS011;8543;54.522;18.550;2022-12-07T07:19:15;3.80;;;2.10;;
16854;SDS011;8543;54.522;18.550;2022-12-07T07:21:41;5.30;;;2.40;;
16854;SDS011;8543;54.522;18.550;2022-12-07T07:24:06;4.40;;;2.10;;
16854;SDS011;8543;54.522;18.550;2022-12-07T07:26:32;3.30;;;1.90;;
16854;SDS011;8543;54.522;18.550;2022-12-07T07:28:57;3.80;;;2.10;;
16854;SDS011;8543;54.522;18.550;2022-12-07T07:31:23;5.00;;;2.50;;
16854;SDS011;8543;54.522;18.550;2022-12-07T07:33:48;5.50;;;2.70;;
16854;SDS011;8543;54.522;18.550;2022-12-07T07:36:13;5.00;;;2.50;;
16854;SDS011;8543;54.522;18.550;2022-12-07T07:38:39;5.20;;;2.50;;
16854;SDS011;8543;54.522;18.550;2022-12-07T07:41:04;4.30;;;2.70;;
16854;SDS011;8543;54.522;18.550;2022-12-07T07:43:30;5.20;;;3.00;;
16854;SDS011;8543;54.522;18.550;2022-12-07T07:45:55;4.90;;;3.00;;
16854;SDS011;8543;54.522;18.550;2022-12-07T07:48:20;4.90;;;2.80;;
16854;SDS011;8543;54.522;18.550;2022-12-07T07:50:47;4.70;;;2.60;;
16854;SDS011;8543;54.522;18.550;2022-12-07T07:53:13;3.90;;;2.50;;
16854;SDS011;8543;54.522;18.550;2022-12-07T07:55:38;4.80;;;2.60;;
16854;SDS011;8543;54.522;18.550;2022-12-07T07:58:04;4.70;;;2.80;;
16854;SDS011;8543;54.522;18.550;2022-12-07T08:00:29;5.30;;;2.60;;
16854;SDS011;8543;54.522;18.550;2022-12-07T08:02:55;4.80;;;2.60;;
16854;SDS011;8543;54.522;18.550;2022-12-07T08:05:20;5.10;;;2.80;;
16854;SDS011;8543;54.522;18.550;2022-12-07T08:07:46;4.70;;;2.90;;
16854;SDS011;8543;54.522;18.550;2022-12-07T08:10:12;6.10;;;3.10;;
16854;SDS011;8543;54.522;18.550;2022-12-07T08:12:39;6.30;;;3.50;;
16854;SDS011;8543;54.522;18.550;2022-12-07T08:15:26;5.90;;;3.10;;
16854;SDS011;8543;54.522;18.550;2022-12-07T08:17:52;4.20;;;3.00;;
16854;SDS011;8543;54.522;18.550;2022-12-07T08:20:18;5.60;;;3.10;;
16854;SDS011;8543;54.522;18.550;2022-12-07T08:22:43;6.00;;;3.20;;
16854;SDS011;8543;54.522;18.550;2022-12-07T08:25:09;6.90;;;3.90;;
16854;SDS011;8543;54.522;18.550;2022-12-07T08:27:34;6.20;;;3.80;;
16854;SDS011;8543;54.522;18.550;2022-12-07T08:30:00;5.90;;;3.40;;
16854;SDS011;8543;54.522;18.550;2022-12-07T08:32:25;6.00;;;3.70;;
16854;SDS011;8543;54.522;18.550;2022-12-07T08:34:51;6.30;;;3.30;;
16854;SDS011;8543;54.522;18.550;2022-12-07T08:37:17;7.60;;;3.50;;
16854;SDS011;8543;54.522;18.550;2022-12-07T08:39:42;5.00;;;3.30;;
16854;SDS011;8543;54.522;18.550;2022-12-07T08:42:08;5.40;;;3.20;;
16854;SDS011;8543;54.522;18.550;2022-12-07T08:44:33;5.70;;;3.70;;
16854;SDS011;8543;54.522;18.550;2022-12-07T08:46:59;5.60;;;3.10;;
16854;SDS011;8543;54.522;18.550;2022-12-07T08:49:30;4.70;;;3.10;;
16854;SDS011;8543;54.522;18.550;2022-12-07T08:52:06;6.90;;;3.20;;
16854;SDS011;8543;54.522;18.550;2022-12-07T08:54:31;5.80;;;3.60;;
16854;SDS011;8543;54.522;18.550;2022-12-07T08:56:59;4.50;;;3.10;;
16854;SDS011;8543;54.522;18.550;2022-12-07T08:59:24;4.50;;;3.00;;
16854;SDS011;8543;54.522;18.550;2022-12-07T09:01:50;6.30;;;3.40;;
16854;SDS011;8543;54.522;18.550;2022-12-07T09:04:16;5.80;;;3.30;;
16854;SDS011;8543;54.522;18.550;2022-12-07T09:06:41;6.00;;;3.50;;
16854;SDS011;8543;54.522;18.550;2022-12-07T09:09:07;5.80;;;3.20;;
16854;SDS011;8543;54.522;18.550;2022-12-07T09:11:32;5.30;;;3.30;;
16854;SDS011;8543;54.522;18.550;2022-12-07T09:13:58;5.60;;;3.10;;
16854;SDS011;8543;54.522;18.550;2022-12-07T09:16:23;5.10;;;3.20;;
16854;SDS011;8543;54.522;18.550;2022-12-07T09:18:49;4.20;;;3.00;;
16854;SDS011;8543;54.522;18.550;2022-12-07T09:21:14;5.10;;;2.70;;
16854;SDS011;8543;54.522;18.550;2022-12-07T09:23:41;5.50;;;2.90;;
16854;SDS011;8543;54.522;18.550;2022-12-07T09:26:07;4.30;;;2.70;;
16854;SDS011;8543;54.522;18.550;2022-12-07T09:28:33;3.70;;;2.50;;
16854;SDS011;8543;54.522;18.550;2022-12-07T09:30:58;4.00;;;2.60;;
16854;SDS011;8543;54.522;18.550;2022-12-07T09:33:23;5.00;;;2.80;;
16854;SDS011;8543;54.522;18.550;2022-12-07T09:35:49;3.40;;;2.30;;
16854;SDS011;8543;54.522;18.550;2022-12-07T09:38:16;3.90;;;2.50;;
16854;SDS011;8543;54.522;18.550;2022-12-07T09:40:42;4.60;;;3.00;;
16854;SDS011;8543;54.522;18.550;2022-12-07T09:43:19;4.10;;;2.70;;
16854;SDS011;8543;54.522;18.550;2022-12-07T09:45:47;5.80;;;3.60;;
16854;SDS011;8543;54.522;18.550;2022-12-07T09:48:18;3.40;;;2.50;;
16854;SDS011;8543;54.522;18.550;2022-12-07T09:50:45;6.00;;;2.70;;
16854;SDS011;8543;54.522;18.550;2022-12-07T09:53:18;4.40;;;2.70;;
16854;SDS011;8543;54.522;18.550;2022-12-07T09:55:49;4.10;;;2.60;;
16854;SDS011;8543;54.522;18.550;2022-12-07T09:58:22;4.30;;;2.60;;
16854;SDS011;8543;54.522;18.550;2022-12-07T10:00:50;4.30;;;2.70;;
16854;SDS011;8543;54.522;18.550;2022-12-07T10:03:19;4.30;;;2.70;;
16854;SDS011;8543;54.522;18.550;2022-12-07T10:05:45;4.00;;;3.00;;
16854;SDS011;8543;54.522;18.550;2022-12-07T10:08:13;4.70;;;2.80;;
16854;SDS011;8543;54.522;18.550;2022-12-07T10:10:40;4.60;;;2.80;;
16854;SDS011;8543;54.522;18.550;2022-12-07T10:13:18;5.90;;;3.20;;
16854;SDS011;8543;54.522;18.550;2022-12-07T10:15:55;4.40;;;2.70;;
16854;SDS011;8543;54.522;18.550;2022-12-07T10:20:59;4.20;;;2.80;;
16854;SDS011;8543;54.522;18.550;2022-12-07T10:23:36;3.90;;;2.80;;
16854;SDS011;8543;54.522;18.550;2022-12-07T10:26:49;6.10;;;3.20;;
16854;SDS011;8543;54.522;18.550;2022-12-07T10:31:48;6.10;;;3.40;;
16854;SDS011;8543;54.522;18.550;2022-12-07T10:36:47;5.80;;;3.60;;
16854;SDS011;8543;54.522;18.550;2022-12-07T10:39:13;6.30;;;3.80;;
16854;SDS011;8543;54.522;18.550;2022-12-07T10:41:56;5.70;;;3.50;;
16854;SDS011;8543;54.522;18.550;2022-12-07T10:58:05;4.90;;;3.70;;
16854;SDS011;8543;54.522;18.550;2022-12-07T11:11:09;4.50;;;3.20;;
16854;SDS011;8543;54.522;18.550;2022-12-07T11:19:16;5.40;;;3.60;;
16854;SDS011;8543;54.522;18.550;2022-12-07T11:22:09;4.60;;;3.30;;
16854;SDS011;8543;54.522;18.550;2022-12-07T11:24:49;5.80;;;3.20;;
16854;SDS011;8543;54.522;18.550;2022-12-07T11:30:21;5.30;;;3.20;;
16854;SDS011;8543;54.522;18.550;2022-12-07T11:35:38;7.60;;;3.70;;
16854;SDS011;8543;54.522;18.550;2022-12-07T11:38:17;6.30;;;3.70;;
16854;SDS011;8543;54.522;18.550;2022-12-07T11:41:04;6.00;;;4.00;;
16854;SDS011;8543;54.522;18.550;2022-12-07T11:51:46;6.10;;;3.70;;
16854;SDS011;8543;54.522;18.550;2022-12-07T11:54:15;6.20;;;3.80;;
16854;SDS011;8543;54.522;18.550;2022-12-07T11:56:45;6.50;;;3.80;;
16854;SDS011;8543;54.522;18.550;2022-12-07T11:59:17;6.90;;;3.90;;
16854;SDS011;8543;54.522;18.550;2022-12-07T12:01:50;6.10;;;3.60;;
16854;SDS011;8543;54.522;18.550;2022-12-07T12:04:25;6.40;;;4.20;;
16854;SDS011;8543;54.522;18.550;2022-12-07T12:07:07;6.40;;;3.60;;
16854;SDS011;8543;54.522;18.550;2022-12-07T12:09:34;9.30;;;4.10;;
16854;SDS011;8543;54.522;18.550;2022-12-07T12:15:16;6.70;;;4.30;;
16854;SDS011;8543;54.522;18.550;2022-12-07T12:18:09;6.00;;;4.20;;
16854;SDS011;8543;54.522;18.550;2022-12-07T12:20:55;6.30;;;4.00;;
16854;SDS011;8543;54.522;18.550;2022-12-07T12:23:45;5.90;;;3.90;;
16854;SDS011;8543;54.522;18.550;2022-12-07T12:26:31;5.40;;;3.80;;
16854;SDS011;8543;54.522;18.550;2022-12-07T12:29:02;6.80;;;3.50;;
16854;SDS011;8543;54.522;18.550;2022-12-07T12:31:33;5.30;;;3.50;;
16854;SDS011;8543;54.522;18.550;2022-12-07T12:34:01;4.80;;;3.30;;
16854;SDS011;8543;54.522;18.550;2022-12-07T12:51:52;6.90;;;4.00;;
16854;SDS011;8543;54.522;18.550;2022-12-07T12:57:32;6.50;;;3.60;;
16854;SDS011;8543;54.522;18.550;2022-12-07T12:59:58;5.60;;;3.60;;
16854;SDS011;8543;54.522;18.550;2022-12-07T13:05:20;6.50;;;4.00;;
16854;SDS011;8543;54.522;18.550;2022-12-07T13:15:46;5.90;;;3.60;;
16854;SDS011;8543;54.522;18.550;2022-12-07T13:23:19;5.30;;;3.40;;
16854;SDS011;8543;54.522;18.550;2022-12-07T13:25:51;5.10;;;3.20;;
16854;SDS011;8543;54.522;18.550;2022-12-07T13:28:26;6.30;;;3.30;;
16854;SDS011;8543;54.522;18.550;2022-12-07T13:31:18;6.50;;;3.40;;
16854;SDS011;8543;54.522;18.550;2022-12-07T13:34:04;8.40;;;4.00;;
16854;SDS011;8543;54.522;18.550;2022-12-07T13:36:37;6.00;;;3.80;;
16854;SDS011;8543;54.522;18.550;2022-12-07T13:39:44;6.20;;;3.60;;
16854;SDS011;8543;54.522;18.550;2022-12-07T13:41:58;7.60;;;3.70;;
16854;SDS011;8543;54.522;18.550;2022-12-07T13:44:26;5.90;;;3.30;;
16854;SDS011;8543;54.522;18.550;2022-12-07T13:49:49;5.70;;;3.40;;
16854;SDS011;8543;54.522;18.550;2022-12-07T13:52:23;5.90;;;3.40;;
16854;SDS011;8543;54.522;18.550;2022-12-07T13:57:46;5.70;;;3.40;;
16854;SDS011;8543;54.522;18.550;2022-12-07T14:00:18;7.30;;;3.50;;
16854;SDS011;8543;54.522;18.550;2022-12-07T14:02:57;5.90;;;3.20;;
16854;SDS011;8543;54.522;18.550;2022-12-07T14:05:44;5.80;;;3.20;;
16854;SDS011;8543;54.522;18.550;2022-12-07T14:10:36;6.30;;;3.60;;
16854;SDS011;8543;54.522;18.550;2022-12-07T14:13:22;5.90;;;3.50;;
16854;SDS011;8543;54.522;18.550;2022-12-07T14:15:49;5.40;;;3.20;;
16854;SDS011;8543;54.522;18.550;2022-12-07T14:18:26;5.40;;;3.30;;
16854;SDS011;8543;54.522;18.550;2022-12-07T14:23:30;5.90;;;3.00;;
16854;SDS011;8543;54.522;18.550;2022-12-07T14:26:04;5.70;;;3.30;;
16854;SDS011;8543;54.522;18.550;2022-12-07T14:28:33;6.00;;;3.20;;
16854;SDS011;8543;54.522;18.550;2022-12-07T14:31:00;6.10;;;3.90;;
16854;SDS011;8543;54.522;18.550;2022-12-07T14:33:27;6.40;;;3.50;;
16854;SDS011;8543;54.522;18.550;2022-12-07T14:35:52;6.20;;;3.40;;
16854;SDS011;8543;54.522;18.550;2022-12-07T14:38:23;6.00;;;3.50;;
16854;SDS011;8543;54.522;18.550;2022-12-07T14:40:49;5.20;;;2.80;;
16854;SDS011;8543;54.522;18.550;2022-12-07T14:43:16;6.10;;;3.00;;
16854;SDS011;8543;54.522;18.550;2022-12-07T14:45:42;7.70;;;3.30;;
16854;SDS011;8543;54.522;18.550;2022-12-07T14:48:11;5.40;;;3.00;;
16854;SDS011;8543;54.522;18.550;2022-12-07T14:50:39;5.50;;;3.00;;
16854;SDS011;8543;54.522;18.550;2022-12-07T14:53:17;5.50;;;3.00;;
16854;SDS011;8543;54.522;18.550;2022-12-07T14:55:44;5.50;;;3.00;;
16854;SDS011;8543;54.522;18.550;2022-12-07T14:58:16;5.70;;;3.10;;
16854;SDS011;8543;54.522;18.550;2022-12-07T15:00:42;7.00;;;3.10;;
16854;SDS011;8543;54.522;18.550;2022-12-07T15:03:08;6.10;;;3.00;;
16854;SDS011;8543;54.522;18.550;2022-12-07T15:05:33;4.90;;;3.20;;
16854;SDS011;8543;54.522;18.550;2022-12-07T15:07:59;4.90;;;3.00;;
16854;SDS011;8543;54.522;18.550;2022-12-07T15:10:29;5.00;;;3.00;;
16854;SDS011;8543;54.522;18.550;2022-12-07T15:12:59;5.70;;;2.80;;
16854;SDS011;8543;54.522;18.550;2022-12-07T15:15:45;4.90;;;2.70;;
16854;SDS011;8543;54.522;18.550;2022-12-07T15:18:10;3.90;;;2.60;;
16854;SDS011;8543;54.522;18.550;2022-12-07T15:20:36;5.80;;;3.30;;
16854;SDS011;8543;54.522;18.550;2022-12-07T15:23:01;5.40;;;2.70;;
16854;SDS011;8543;54.522;18.550;2022-12-07T15:25:27;5.50;;;2.80;;
16854;SDS011;8543;54.522;18.550;2022-12-07T15:27:52;5.30;;;2.90;;
16854;SDS011;8543;54.522;18.550;2022-12-07T15:30:17;6.30;;;3.20;;
16854;SDS011;8543;54.522;18.550;2022-12-07T15:32:48;4.70;;;2.90;;
16854;SDS011;8543;54.522;18.550;2022-12-07T15:35:14;5.80;;;2.70;;
16854;SDS011;8543;54.522;18.550;2022-12-07T15:37:40;4.70;;;2.80;;
16854;SDS011;8543;54.522;18.550;2022-12-07T15:40:05;5.30;;;2.80;;
16854;SDS011;8543;54.522;18.550;2022-12-07T15:42:31;6.00;;;3.20;;
16854;SDS011;8543;54.522;18.550;2022-12-07T15:44:57;4.60;;;2.80;;
16854;SDS011;8543;54.522;18.550;2022-12-07T15:47:31;5.60;;;2.90;;
16854;SDS011;8543;54.522;18.550;2022-12-07T15:50:00;6.20;;;2.80;;
16854;SDS011;8543;54.522;18.550;2022-12-07T15:52:25;5.30;;;3.00;;
16854;SDS011;8543;54.522;18.550;2022-12-07T15:54:51;5.70;;;3.00;;
16854;SDS011;8543;54.522;18.550;2022-12-07T15:57:16;4.50;;;2.60;;
16854;SDS011;8543;54.522;18.550;2022-12-07T15:59:41;7.30;;;2.90;;
16854;SDS011;8543;54.522;18.550;2022-12-07T16:02:08;4.70;;;2.80;;
16854;SDS011;8543;54.522;18.550;2022-12-07T16:04:35;6.30;;;3.10;;
16854;SDS011;8543;54.522;18.550;2022-12-07T16:07:01;5.90;;;3.50;;
16854;SDS011;8543;54.522;18.550;2022-12-07T16:09:26;6.50;;;3.00;;
16854;SDS011;8543;54.522;18.550;2022-12-07T16:11:52;4.00;;;2.50;;
16854;SDS011;8543;54.522;18.550;2022-12-07T16:14:17;4.70;;;2.70;;
16854;SDS011;8543;54.522;18.550;2022-12-07T16:16:43;4.70;;;2.80;;
16854;SDS011;8543;54.522;18.550;2022-12-07T16:19:08;5.50;;;2.50;;
16854;SDS011;8543;54.522;18.550;2022-12-07T16:21:34;4.50;;;2.40;;
16854;SDS011;8543;54.522;18.550;2022-12-07T16:24:00;4.20;;;2.60;;
16854;SDS011;8543;54.522;18.550;2022-12-07T16:26:26;4.10;;;2.60;;
16854;SDS011;8543;54.522;18.550;2022-12-07T16:28:52;4.80;;;3.00;;
16854;SDS011;8543;54.522;18.550;2022-12-07T16:31:19;4.40;;;2.60;;
16854;SDS011;8543;54.522;18.550;2022-12-07T16:33:46;3.90;;;2.10;;
16854;SDS011;8543;54.522;18.550;2022-12-07T16:36:12;3.10;;;2.00;;
16854;SDS011;8543;54.522;18.550;2022-12-07T16:38:40;4.10;;;2.30;;
16854;SDS011;8543;54.522;18.550;2022-12-07T16:41:06;3.50;;;2.00;;
16854;SDS011;8543;54.522;18.550;2022-12-07T16:43:31;5.00;;;2.10;;
16854;SDS011;8543;54.522;18.550;2022-12-07T16:45:57;4.30;;;2.10;;
16854;SDS011;8543;54.522;18.550;2022-12-07T16:48:23;4.10;;;2.10;;
16854;SDS011;8543;54.522;18.550;2022-12-07T16:50:48;3.00;;;1.90;;
16854;SDS011;8543;54.522;18.550;2022-12-07T16:53:14;3.80;;;2.10;;
16854;SDS011;8543;54.522;18.550;2022-12-07T16:55:44;3.80;;;1.90;;
16854;SDS011;8543;54.522;18.550;2022-12-07T16:58:10;3.10;;;1.60;;
16854;SDS011;8543;54.522;18.550;2022-12-07T17:00:37;3.20;;;1.80;;
16854;SDS011;8543;54.522;18.550;2022-12-07T17:03:02;2.70;;;1.90;;
16854;SDS011;8543;54.522;18.550;2022-12-07T17:05:28;3.40;;;1.60;;
16854;SDS011;8543;54.522;18.550;2022-12-07T17:07:54;3.50;;;2.00;;
16854;SDS011;8543;54.522;18.550;2022-12-07T17:10:20;4.40;;;2.10;;